createdAt,value
2014-09-18T00:00:40.261Z,66.4
2014-09-18T00:01:44.935Z,65.93
2014-09-18T00:02:49.920Z,66.12
2014-09-18T00:03:54.906Z,66.11
2014-09-18T00:04:59.580Z,65.97
2014-09-18T00:06:04.270Z,66.12
2014-09-18T00:07:08.944Z,66.06
2014-09-18T00:08:13.633Z,66.6
2014-09-18T00:09:18.307Z,66.09
2014-09-18T00:10:22.996Z,66.3
2014-09-18T00:11:27.669Z,67.27
2014-09-18T00:12:32.360Z,68.03
2014-09-18T00:13:37.051Z,68.68
2014-09-18T00:14:41.724Z,69
2014-09-18T00:15:46.712Z,69.04
2014-09-18T00:16:51.400Z,68.98
2014-09-18T00:17:56.074Z,68.96
2014-09-18T00:19:00.764Z,68.96
2014-09-18T00:20:05.735Z,68.63
2014-09-18T00:21:10.425Z,68.16
2014-09-18T00:22:15.098Z,67.34
2014-09-18T00:23:20.084Z,66.86
2014-09-18T00:24:24.773Z,67
2014-09-18T00:25:29.463Z,66.86
2014-09-18T00:26:34.137Z,66.41
2014-09-18T00:27:39.124Z,67.11
2014-09-18T00:28:43.814Z,67.17
2014-09-18T00:29:48.488Z,68.11
2014-09-18T00:30:52.786Z,68.53
2014-09-18T00:31:57.758Z,68.77
2014-09-18T00:33:02.447Z,68.71
2014-09-18T00:34:07.136Z,69.12
2014-09-18T00:35:11.826Z,68.08
2014-09-18T00:36:16.515Z,67.71
2014-09-18T00:37:21.189Z,67.14
2014-09-18T00:38:25.879Z,66.96
2014-09-18T00:39:30.552Z,67.6
2014-09-18T00:40:35.243Z,67.73
2014-09-18T00:41:39.917Z,67.73
2014-09-18T00:42:44.606Z,66.87
2014-09-18T00:43:49.296Z,66.85
2014-09-18T00:44:53.970Z,67.99
2014-09-18T00:45:58.659Z,68.33
2014-09-18T00:47:03.350Z,69.11
2014-09-18T00:48:07.336Z,69.55
2014-09-18T00:49:12.026Z,69.83
2014-09-18T00:50:17.012Z,68.81
2014-09-18T00:51:21.686Z,68.27
2014-09-18T00:52:26.375Z,67.74
2014-09-18T00:53:31.049Z,68
2014-09-18T00:54:35.739Z,67.86
2014-09-18T00:55:40.429Z,67.99
2014-09-18T00:56:45.103Z,68.5
2014-09-18T00:57:49.105Z,68.2
2014-09-18T00:58:53.778Z,68.19
2014-09-18T00:59:58.765Z,67.91
2014-09-18T01:01:03.454Z,68.24
2014-09-18T01:02:08.441Z,69.09
2014-09-18T01:03:12.428Z,69.72
2014-09-18T01:04:17.117Z,68.92
2014-09-18T01:05:22.088Z,68.42
2014-09-18T01:06:26.777Z,68.17
2014-09-18T01:07:31.764Z,68.14
2014-09-18T01:08:36.439Z,68.19
2014-09-18T01:09:41.127Z,69.22
2014-09-18T01:10:45.801Z,69.67
2014-09-18T01:11:50.787Z,70.05
2014-09-18T01:12:55.477Z,69.95
2014-09-18T01:14:00.166Z,70.01
2014-09-18T01:15:04.841Z,69.81
2014-09-18T01:16:09.530Z,69.75
2014-09-18T01:17:14.501Z,69.17
2014-09-18T01:18:19.191Z,68.54
2014-09-18T01:19:23.880Z,67.96
2014-09-18T01:20:28.554Z,67.78
2014-09-18T01:21:33.541Z,67.87
2014-09-18T01:22:38.231Z,68.17
2014-09-18T01:23:43.201Z,68.32
2014-09-18T01:24:47.890Z,68.64
2014-09-18T01:25:52.580Z,68.12
2014-09-18T01:26:57.269Z,68.66
2014-09-18T01:28:01.958Z,69.09
2014-09-18T01:29:06.632Z,68.92
2014-09-18T01:30:11.321Z,68.6
2014-09-18T01:31:16.012Z,68.53
2014-09-18T01:32:20.686Z,68.99
2014-09-18T01:33:25.375Z,68.23
2014-09-18T01:34:30.361Z,68.01
2014-09-18T01:35:34.347Z,67.75
2014-09-18T01:36:39.038Z,67.52
2014-09-18T01:37:44.025Z,67.58
2014-09-18T01:38:48.698Z,67.84
2014-09-18T01:39:53.388Z,67.78
2014-09-18T01:40:58.374Z,67.34
2014-09-18T01:42:03.047Z,67.5
2014-09-18T01:43:07.737Z,67.48
2014-09-18T01:44:12.708Z,67.57
2014-09-18T01:45:16.726Z,67.65
2014-09-18T01:46:21.416Z,67.67
2014-09-18T01:47:26.387Z,67.75
2014-09-18T01:48:31.075Z,67.76
2014-09-18T01:49:35.765Z,67.93
2014-09-18T01:50:40.753Z,67.63
2014-09-18T01:51:45.724Z,67.82
2014-09-18T01:52:50.413Z,66.88
2014-09-18T01:53:55.103Z,67
2014-09-18T01:54:59.776Z,67.08
2014-09-18T01:56:04.465Z,68.16
2014-09-18T01:57:09.156Z,67.72
2014-09-18T01:58:13.828Z,68.07
2014-09-18T01:59:18.519Z,68.18
2014-09-18T02:00:23.208Z,68.94
2014-09-18T02:01:28.493Z,68.78
2014-09-18T02:02:33.463Z,68.61
2014-09-18T02:03:38.153Z,68.79
2014-09-18T02:04:43.139Z,70.04
2014-09-18T02:05:47.829Z,69.35
2014-09-18T02:06:52.518Z,69.92
2014-09-18T02:07:57.192Z,69.99
2014-09-18T02:09:02.178Z,69.97
2014-09-18T02:10:06.867Z,70.62
2014-09-18T02:11:11.558Z,70.11
2014-09-18T02:12:16.248Z,70.31
2014-09-18T02:13:21.233Z,70.16
2014-09-18T02:14:25.908Z,68.97
2014-09-18T02:15:30.612Z,69.19
2014-09-18T02:16:35.303Z,68.77
2014-09-18T02:17:40.289Z,69.59
2014-09-18T02:18:45.276Z,70.04
2014-09-18T02:19:49.965Z,69.59
2014-09-18T02:20:54.655Z,69.41
2014-09-18T02:21:59.344Z,68.98
2014-09-18T02:23:04.331Z,68.79
2014-09-18T02:24:09.019Z,68.9
2014-09-18T02:25:13.991Z,68.18
2014-09-18T02:26:18.680Z,68.09
2014-09-18T02:27:23.369Z,68.64
2014-09-18T02:28:28.058Z,69.3
2014-09-18T02:29:32.732Z,69.14
2014-09-18T02:30:37.422Z,69.35
2014-09-18T02:31:42.112Z,69.89
2014-09-18T02:32:46.411Z,70
2014-09-18T02:33:51.085Z,69.74
2014-09-18T02:34:56.071Z,70.37
2014-09-18T02:36:01.058Z,70.67
2014-09-18T02:37:05.747Z,70.37
2014-09-18T02:38:10.718Z,70.53
2014-09-18T02:39:15.407Z,69.67
2014-09-18T02:40:20.378Z,69.69
2014-09-18T02:41:25.068Z,70.31
2014-09-18T02:42:29.757Z,70.59
2014-09-18T02:43:34.431Z,70.64
2014-09-18T02:44:39.418Z,70.37
2014-09-18T02:45:44.109Z,70.5
2014-09-18T02:46:48.783Z,71.15
2014-09-18T02:47:53.769Z,71.45
2014-09-18T02:48:58.739Z,71.23
2014-09-18T02:50:03.725Z,70.95
2014-09-18T02:51:08.399Z,70.24
2014-09-18T02:52:13.089Z,69.94
2014-09-18T02:53:17.778Z,69.62
2014-09-18T02:54:22.468Z,69.7
2014-09-18T02:55:27.142Z,69.51
2014-09-18T02:56:31.831Z,69.25
2014-09-18T02:57:36.802Z,69.02
2014-09-18T02:58:41.493Z,69.05
2014-09-18T02:59:46.464Z,68.87
2014-09-18T03:00:51.153Z,68.51
2014-09-18T03:01:55.842Z,68.57
2014-09-18T03:02:59.828Z,68.9
2014-09-18T03:04:04.815Z,69.03
2014-09-18T03:05:09.504Z,69.66
2014-09-18T03:06:14.178Z,69.16
2014-09-18T03:07:19.165Z,69.81
2014-09-18T03:08:23.854Z,69.75
2014-09-18T03:09:28.544Z,69.36
2014-09-18T03:10:33.217Z,68.9
2014-09-18T03:11:37.907Z,69.92
2014-09-18T03:12:42.582Z,69.4
2014-09-18T03:13:47.271Z,70.49
2014-09-18T03:14:52.258Z,70.77
2014-09-18T03:15:56.933Z,70.66
2014-09-18T03:17:01.621Z,70.77
2014-09-18T03:18:06.312Z,70.42
2014-09-18T03:19:10.985Z,70.54
2014-09-18T03:20:15.675Z,70.8
2014-09-18T03:21:20.349Z,70.65
2014-09-18T03:22:25.335Z,70.76
2014-09-18T03:23:30.025Z,70.85
2014-09-18T03:24:34.700Z,70.41
2014-09-18T03:25:39.686Z,70.73
2014-09-18T03:26:44.359Z,70.48
2014-09-18T03:27:49.643Z,70.27
2014-09-18T03:28:54.332Z,70.58
2014-09-18T03:29:59.005Z,70.68
2014-09-18T03:31:03.695Z,70.74
2014-09-18T03:32:08.384Z,70.99
2014-09-18T03:33:13.074Z,70.78
2014-09-18T03:34:17.748Z,70.36
2014-09-18T03:35:22.734Z,69.71
2014-09-18T03:36:27.425Z,69.88
2014-09-18T03:37:32.115Z,69.88
2014-09-18T03:38:36.788Z,69.56
2014-09-18T03:39:41.478Z,69.82
2014-09-18T03:40:46.168Z,70.43
2014-09-18T03:41:51.154Z,70.61
2014-09-18T03:42:55.827Z,70.27
2014-09-18T03:44:00.814Z,70.58
2014-09-18T03:45:05.488Z,70.41
2014-09-18T03:46:10.176Z,70.14
2014-09-18T03:47:14.850Z,70.24
2014-09-18T03:48:19.836Z,70.47
2014-09-18T03:49:24.511Z,70.62
2014-09-18T03:50:29.201Z,70.73
2014-09-18T03:51:33.875Z,70.93
2014-09-18T03:52:38.563Z,70.88
2014-09-18T03:53:43.551Z,70.84
2014-09-18T03:54:48.522Z,71.04
2014-09-18T03:55:53.509Z,71.17
2014-09-18T03:56:58.198Z,71.06
2014-09-18T03:58:02.872Z,69.93
2014-09-18T03:59:07.561Z,70.81
2014-09-18T04:00:12.235Z,70.65
2014-09-18T04:01:16.925Z,71.27
2014-09-18T04:02:21.599Z,71.34
2014-09-18T04:03:26.584Z,71.16
2014-09-18T04:04:31.274Z,71.17
2014-09-18T04:05:35.947Z,70.88
2014-09-18T04:06:40.935Z,70.15
2014-09-18T04:07:45.610Z,70.1
2014-09-18T04:08:50.299Z,70.02
2014-09-18T04:09:54.973Z,69.95
2014-09-18T04:10:59.976Z,70.17
2014-09-18T04:12:04.946Z,70.46
2014-09-18T04:13:09.636Z,69.55
2014-09-18T04:14:14.326Z,69.71
2014-09-18T04:15:19.297Z,69.4
2014-09-18T04:16:23.986Z,69.24
2014-09-18T04:17:28.676Z,70.1
2014-09-18T04:18:33.349Z,70.94
2014-09-18T04:19:38.039Z,71.24
2014-09-18T04:20:42.713Z,70.86
2014-09-18T04:21:47.402Z,70.75
2014-09-18T04:22:52.389Z,70.79
2014-09-18T04:23:57.063Z,71.13
2014-09-18T04:25:01.752Z,71.6
2014-09-18T04:26:06.441Z,71.42
2014-09-18T04:27:11.428Z,71.24
2014-09-18T04:28:16.399Z,71.65
2014-09-18T04:29:21.385Z,71.98
2014-09-18T04:30:26.059Z,71.58
2014-09-18T04:31:30.748Z,71.06
2014-09-18T04:32:35.439Z,71.12
2014-09-18T04:33:40.425Z,70.63
2014-09-18T04:34:45.396Z,70.08
2014-09-18T04:35:50.086Z,69.53
2014-09-18T04:36:54.774Z,69.22
2014-09-18T04:37:59.464Z,69.24
2014-09-18T04:39:04.435Z,69.22
2014-09-18T04:40:09.422Z,68.49
2014-09-18T04:41:14.705Z,68.33
2014-09-18T04:42:19.395Z,68.92
2014-09-18T04:43:24.084Z,69.32
2014-09-18T04:44:29.070Z,69.08
2014-09-18T04:45:33.761Z,69.59
2014-09-18T04:46:38.731Z,69.5
2014-09-18T04:47:43.421Z,69.41
2014-09-18T04:48:48.407Z,69.4
2014-09-18T04:49:53.097Z,69.86
2014-09-18T04:50:58.068Z,69.57
2014-09-18T04:52:02.756Z,69.83
2014-09-18T04:53:07.446Z,69.82
2014-09-18T04:54:12.136Z,69.67
2014-09-18T04:55:16.826Z,70.39
2014-09-18T04:56:21.795Z,69.45
2014-09-18T04:57:26.485Z,69.19
2014-09-18T04:58:31.471Z,69.19
2014-09-18T04:59:36.161Z,69.12
2014-09-18T05:00:40.835Z,69.12
2014-09-18T05:01:46.120Z,69.34
2014-09-18T05:02:50.809Z,69.31
2014-09-18T05:03:55.499Z,69.08
2014-09-18T05:05:00.173Z,68.77
2014-09-18T05:06:04.862Z,68.88
2014-09-18T05:07:09.536Z,68.52
2014-09-18T05:08:14.226Z,68.98
2014-09-18T05:09:18.901Z,68.66
2014-09-18T05:10:23.589Z,68.94
2014-09-18T05:11:28.560Z,69.4
2014-09-18T05:12:33.250Z,70.44
2014-09-18T05:13:38.237Z,70.65
2014-09-18T05:14:42.911Z,70.49
2014-09-18T05:15:47.599Z,70.08
2014-09-18T05:16:52.586Z,69.73
2014-09-18T05:17:57.854Z,69.33
2014-09-18T05:19:02.544Z,69.06
2014-09-18T05:20:07.233Z,68.78
2014-09-18T05:21:12.204Z,69.14
2014-09-18T05:22:17.190Z,68.63
2014-09-18T05:23:21.864Z,68.22
2014-09-18T05:24:26.867Z,69.11
2014-09-18T05:25:31.540Z,69.24
2014-09-18T05:26:36.824Z,68.85
2014-09-18T05:27:41.498Z,69.47
2014-09-18T05:28:46.191Z,69.13
2014-09-18T05:29:50.864Z,68.88
2014-09-18T05:30:55.538Z,68.58
2014-09-18T05:32:00.525Z,68.68
2014-09-18T05:33:05.214Z,68.84
2014-09-18T05:34:09.889Z,69.16
2014-09-18T05:35:14.577Z,69.81
2014-09-18T05:36:19.564Z,70.3
2014-09-18T05:37:24.238Z,69.51
2014-09-18T05:38:28.927Z,69.13
2014-09-18T05:39:33.617Z,69.71
2014-09-18T05:40:38.306Z,70
2014-09-18T05:41:42.979Z,70.25
2014-09-18T05:42:47.671Z,69.61
2014-09-18T05:43:52.641Z,69.19
2014-09-18T05:44:57.332Z,68.9
2014-09-18T05:46:02.006Z,69.49
2014-09-18T05:47:06.694Z,70.45
2014-09-18T05:48:11.681Z,70.62
2014-09-18T05:49:16.354Z,70.15
2014-09-18T05:50:21.044Z,70.2
2014-09-18T05:51:26.327Z,70.06
2014-09-18T05:52:31.017Z,69.04
2014-09-18T05:53:35.693Z,69.4
2014-09-18T05:54:40.381Z,69.14
2014-09-18T05:55:45.071Z,69.68
2014-09-18T05:56:49.745Z,69.88
2014-09-18T05:57:54.435Z,70.28
2014-09-18T05:58:59.109Z,70.53
2014-09-18T06:00:04.095Z,70.46
2014-09-18T06:01:09.081Z,69.8
2014-09-18T06:02:13.754Z,68.32
2014-09-18T06:03:18.444Z,68.24
2014-09-18T06:04:23.118Z,67.3
2014-09-18T06:05:28.103Z,66.34
2014-09-18T06:06:32.794Z,66.36
2014-09-18T06:07:37.468Z,66.22
2014-09-18T06:08:42.157Z,64.63
2014-09-18T06:09:46.833Z,62.67
2014-09-18T06:10:51.521Z,60.69
2014-09-18T06:11:56.195Z,58.54
2014-09-18T06:13:00.885Z,54.63
2014-09-18T06:14:05.574Z,50.25
2014-09-18T06:15:10.248Z,47.5
2014-09-18T06:16:15.235Z,46.65
2014-09-18T06:17:19.924Z,46.98
2014-09-18T06:18:24.614Z,45.93
2014-09-18T06:19:29.303Z,48.11
2014-09-18T06:20:33.977Z,48.14
2014-09-18T06:21:38.666Z,46.39
2014-09-18T06:22:43.356Z,44.37
2014-09-18T06:23:48.047Z,43.66
2014-09-18T06:24:53.033Z,44.71
2014-09-18T06:25:57.722Z,44.62
2014-09-18T06:27:02.412Z,45.3
2014-09-18T06:28:07.398Z,43.22
2014-09-18T06:29:12.088Z,44.29
2014-09-18T06:30:16.777Z,39.79
2014-09-18T06:31:21.467Z,38.99
2014-09-18T06:32:26.156Z,39.19
2014-09-18T06:33:31.142Z,37.62
2014-09-18T06:34:35.832Z,36.7
2014-09-18T06:35:40.817Z,36.09
2014-09-18T06:36:45.525Z,35.27
2014-09-18T06:37:49.527Z,35.08
2014-09-18T06:38:54.529Z,34.88
2014-09-18T06:39:59.218Z,33.19
2014-09-18T06:41:04.204Z,33.05
2014-09-18T06:42:08.894Z,33.41
2014-09-18T06:43:13.646Z,32.85
2014-09-18T06:44:18.335Z,32.58
2014-09-18T06:45:23.025Z,32.24
2014-09-18T06:46:27.730Z,32.78
2014-09-18T06:47:32.716Z,32.78
2014-09-18T06:48:37.406Z,32.25
2014-09-18T06:49:42.110Z,32.12
2014-09-18T06:50:46.802Z,32.37
2014-09-18T06:51:51.491Z,32.99
2014-09-18T06:52:56.196Z,32.96
2014-09-18T06:54:00.886Z,31.08
2014-09-18T06:55:05.575Z,30.91
2014-09-18T06:56:10.280Z,30.39
2014-09-18T06:57:15.564Z,29.8
2014-09-18T06:58:20.269Z,30.11
2014-09-18T06:59:24.974Z,29.96
2014-09-18T07:00:29.663Z,30.33
2014-09-18T07:01:34.368Z,28.88
2014-09-18T07:02:39.355Z,29.53
2014-09-18T07:03:44.043Z,29.7
2014-09-18T07:04:49.047Z,32.47
2014-09-18T07:05:53.760Z,36.52
2014-09-18T07:06:58.486Z,38.64
2014-09-18T07:08:03.526Z,40.51
2014-09-18T07:09:08.253Z,41.34
2014-09-18T07:10:12.979Z,43.44
2014-09-18T07:11:17.691Z,46.07
2014-09-18T07:12:22.690Z,46.98
2014-09-18T07:13:27.394Z,47.68
2014-09-18T07:14:32.096Z,48.33
2014-09-18T07:15:37.096Z,49.48
2014-09-18T07:16:41.793Z,51.41
2014-09-18T07:17:46.495Z,53.27
2014-09-18T07:18:51.189Z,52.88
2014-09-18T07:19:55.885Z,51.68
2014-09-18T07:21:00.577Z,51.91
2014-09-18T07:22:05.564Z,52.39
2014-09-18T07:23:10.256Z,54.36
2014-09-18T07:24:14.946Z,54.6
2014-09-18T07:25:19.638Z,55.16
2014-09-18T07:26:24.625Z,56.89
2014-09-18T07:27:29.614Z,55.98
2014-09-18T07:28:34.601Z,55.64
2014-09-18T07:29:39.587Z,55.77
2014-09-18T07:30:44.277Z,54.9
2014-09-18T07:31:49.264Z,54.33
2014-09-18T07:32:53.953Z,56.46
2014-09-18T07:33:58.659Z,55.89
2014-09-18T07:35:03.348Z,56.52
2014-09-18T07:36:08.022Z,56.39
2014-09-18T07:37:12.712Z,55.39
2014-09-18T07:38:17.401Z,55.1
2014-09-18T07:39:22.091Z,57.66
2014-09-18T07:40:26.780Z,56.51
2014-09-18T07:41:31.470Z,56.28
2014-09-18T07:42:36.441Z,57.61
2014-09-18T07:43:41.131Z,58.27
2014-09-18T07:44:45.821Z,57.64
2014-09-18T07:45:50.806Z,58.57
2014-09-18T07:46:55.792Z,57.16
2014-09-18T07:48:00.466Z,57.95
2014-09-18T07:49:05.156Z,58.1
2014-09-18T07:50:09.845Z,56.87
2014-09-18T07:51:14.535Z,56.57
2014-09-18T07:52:19.224Z,57.47
2014-09-18T07:53:24.211Z,56.89
2014-09-18T07:54:29.198Z,58.27
2014-09-18T07:55:33.886Z,59.1
2014-09-18T07:56:38.576Z,59.88
2014-09-18T07:57:43.265Z,57.94
2014-09-18T07:58:47.957Z,57.01
2014-09-18T07:59:52.943Z,56.35
2014-09-18T08:00:57.914Z,56.6
2014-09-18T08:02:02.603Z,57.49
2014-09-18T08:03:07.276Z,57.35
2014-09-18T08:04:12.264Z,56.67
2014-09-18T08:05:16.953Z,56.88
2014-09-18T08:06:21.940Z,56.45
2014-09-18T08:07:26.629Z,56.42
2014-09-18T08:08:31.302Z,55.91
2014-09-18T08:09:35.993Z,56.85
2014-09-18T08:10:40.682Z,57.49
2014-09-18T08:11:45.668Z,57.13
2014-09-18T08:12:50.343Z,56.76
2014-09-18T08:13:55.329Z,56.31
2014-09-18T08:15:00.018Z,56.73
2014-09-18T08:16:05.005Z,57.13
2014-09-18T08:17:09.008Z,58.56
2014-09-18T08:18:13.681Z,58.36
2014-09-18T08:19:18.370Z,58.89
2014-09-18T08:20:23.059Z,57.6
2014-09-18T08:21:28.046Z,57.88
2014-09-18T08:22:32.735Z,56.62
2014-09-18T08:23:37.440Z,55.64
2014-09-18T08:24:42.129Z,55.77
2014-09-18T08:25:47.116Z,55.29
2014-09-18T08:26:51.808Z,55.86
2014-09-18T08:27:56.497Z,55.67
2014-09-18T08:29:01.484Z,56.09
2014-09-18T08:30:06.173Z,57.1
2014-09-18T08:31:10.863Z,55.96
2014-09-18T08:32:15.848Z,56.19
2014-09-18T08:33:20.538Z,55.8
2014-09-18T08:34:25.524Z,56.13
2014-09-18T08:35:30.213Z,56.55
2014-09-18T08:36:35.199Z,56.25
2014-09-18T08:37:40.185Z,55.56
2014-09-18T08:38:45.173Z,55.99
2014-09-18T08:39:50.145Z,56.57
2014-09-18T08:40:55.132Z,56.58
2014-09-18T08:41:59.821Z,56.67
2014-09-18T08:43:04.807Z,57.56
2014-09-18T08:44:09.496Z,57.41
2014-09-18T08:45:14.186Z,57.53
2014-09-18T08:46:18.875Z,57.15
2014-09-18T08:47:23.861Z,57.11
2014-09-18T08:48:28.551Z,56.12
2014-09-18T08:49:33.239Z,56.19
2014-09-18T08:50:37.930Z,56.79
2014-09-18T08:51:42.618Z,56.3
2014-09-18T08:52:47.292Z,56.39
2014-09-18T08:53:51.984Z,55.93
2014-09-18T08:54:56.987Z,55.35
2014-09-18T08:56:01.675Z,55.07
2014-09-18T08:57:06.365Z,56.03
2014-09-18T08:58:11.054Z,56.19
2014-09-18T08:59:16.041Z,55.94
2014-09-18T09:00:20.730Z,56.16
2014-09-18T09:01:25.998Z,56.92
2014-09-18T09:02:30.687Z,56.66
2014-09-18T09:03:35.736Z,56.26
2014-09-18T09:04:40.410Z,55.95
2014-09-18T09:05:45.100Z,56.03
2014-09-18T09:06:49.790Z,56.08
2014-09-18T09:07:54.480Z,56.73
2014-09-18T09:08:59.169Z,56.29
2014-09-18T09:10:04.155Z,56.39
2014-09-18T09:11:08.845Z,55.98
2014-09-18T09:12:13.534Z,55.32
2014-09-18T09:13:17.536Z,54.91
2014-09-18T09:14:22.226Z,54.91
2014-09-18T09:15:26.915Z,53.94
2014-09-18T09:16:31.605Z,54.05
2014-09-18T09:17:36.294Z,55.1
2014-09-18T09:18:40.984Z,54.24
2014-09-18T09:19:45.658Z,53.81
2014-09-18T09:20:50.348Z,53.71
2014-09-18T09:21:55.037Z,54.12
2014-09-18T09:22:59.726Z,53.5
2014-09-18T09:24:04.401Z,54.23
2014-09-18T09:25:09.090Z,53.93
2014-09-18T09:26:13.780Z,54.9
2014-09-18T09:27:18.469Z,55.06
2014-09-18T09:28:23.159Z,54.17
2014-09-18T09:29:27.849Z,54.11
2014-09-18T09:30:32.522Z,54.06
2014-09-18T09:31:37.211Z,54.86
2014-09-18T09:32:41.901Z,55.34
2014-09-18T09:33:46.591Z,56.45
2014-09-18T09:34:51.283Z,55.84
2014-09-18T09:35:55.971Z,55.2
2014-09-18T09:37:00.662Z,55.12
2014-09-18T09:38:05.647Z,53.87
2014-09-18T09:39:10.336Z,54.65
2014-09-18T09:40:15.027Z,54.8
2014-09-18T09:41:19.715Z,55.21
2014-09-18T09:42:24.406Z,55.3
2014-09-18T09:43:29.392Z,55.68
2014-09-18T09:44:34.378Z,54.05
2014-09-18T09:45:39.068Z,55.71
2014-09-18T09:46:43.758Z,54.97
2014-09-18T09:47:48.432Z,54.16
2014-09-18T09:48:53.121Z,54.19
2014-09-18T09:49:58.107Z,54.93
2014-09-18T09:51:03.094Z,55.38
2014-09-18T09:52:07.768Z,54.96
2014-09-18T09:53:12.457Z,54.69
2014-09-18T09:54:17.147Z,54.66
2014-09-18T09:55:21.836Z,54.41
2014-09-18T09:56:26.526Z,53.98
2014-09-18T09:57:31.214Z,53.98
2014-09-18T09:58:35.904Z,54.01
2014-09-18T09:59:40.593Z,54.21
2014-09-18T10:00:45.580Z,53.79
2014-09-18T10:01:50.271Z,55.58
2014-09-18T10:02:54.961Z,54.85
2014-09-18T10:03:59.650Z,55.74
2014-09-18T10:05:04.636Z,55.43
2014-09-18T10:06:09.919Z,54.57
2014-09-18T10:07:14.625Z,55.47
2014-09-18T10:08:19.313Z,56.52
2014-09-18T10:09:24.003Z,55.82
2014-09-18T10:10:29.020Z,56.35
2014-09-18T10:11:33.710Z,55.72
2014-09-18T10:12:38.399Z,56.28
2014-09-18T10:13:43.089Z,56.72
2014-09-18T10:14:47.778Z,56.13
2014-09-18T10:15:52.470Z,56.26
2014-09-18T10:16:57.159Z,56.65
2014-09-18T10:18:01.848Z,56.67
2014-09-18T10:19:06.538Z,55.96
2014-09-18T10:20:11.228Z,55.29
2014-09-18T10:21:15.902Z,57.04
2014-09-18T10:22:20.591Z,57.88
2014-09-18T10:23:25.577Z,57.17
2014-09-18T10:24:30.266Z,56.67
2014-09-18T10:25:34.956Z,57.82
2014-09-18T10:26:39.630Z,57.99
2014-09-18T10:27:44.616Z,57.15
2014-09-18T10:28:49.305Z,56.08
2014-09-18T10:29:54.293Z,55.74
2014-09-18T10:30:58.997Z,55.34
2014-09-18T10:32:03.687Z,55.03
2014-09-18T10:33:08.377Z,56.07
2014-09-18T10:34:13.066Z,55.79
2014-09-18T10:35:17.756Z,55.57
2014-09-18T10:36:22.445Z,55.45
2014-09-18T10:37:27.432Z,55.75
2014-09-18T10:38:32.121Z,56.15
2014-09-18T10:39:37.108Z,56
2014-09-18T10:40:41.797Z,55.79
2014-09-18T10:41:46.487Z,55.47
2014-09-18T10:42:51.475Z,54.48
2014-09-18T10:43:56.164Z,53.09
2014-09-18T10:45:00.853Z,52.94
2014-09-18T10:46:05.528Z,54.75
2014-09-18T10:47:10.216Z,53.11
2014-09-18T10:48:14.906Z,53.56
2014-09-18T10:49:19.595Z,54.53
2014-09-18T10:50:24.269Z,53.86
2014-09-18T10:51:28.959Z,53.09
2014-09-18T10:52:33.648Z,52.65
2014-09-18T10:53:38.932Z,52.94
2014-09-18T10:54:43.621Z,53.3
2014-09-18T10:55:48.295Z,53.27
2014-09-18T10:56:52.985Z,53.1
2014-09-18T10:57:57.691Z,53.26
2014-09-18T10:59:02.381Z,53.23
2014-09-18T11:00:07.086Z,53.58
2014-09-18T11:01:12.072Z,53.86
2014-09-18T11:02:16.762Z,52.98
2014-09-18T11:03:21.452Z,52.23
2014-09-18T11:04:26.141Z,51.94
2014-09-18T11:05:30.830Z,53.12
2014-09-18T11:06:35.519Z,54.17
2014-09-18T11:07:40.209Z,54.16
2014-09-18T11:08:44.897Z,53.99
2014-09-18T11:09:49.883Z,55.04
2014-09-18T11:10:54.576Z,55.55
2014-09-18T11:11:59.562Z,54.83
2014-09-18T11:13:04.252Z,55.87
2014-09-18T11:14:08.926Z,56.25
2014-09-18T11:15:13.614Z,55.71
2014-09-18T11:16:18.304Z,55.98
2014-09-18T11:17:22.993Z,55.1
2014-09-18T11:18:27.683Z,54.74
2014-09-18T11:19:32.372Z,55.01
2014-09-18T11:20:37.062Z,54.84
2014-09-18T11:21:41.751Z,55.23
2014-09-18T11:22:46.456Z,55.58
2014-09-18T11:23:51.443Z,56.09
2014-09-18T11:24:56.133Z,55.78
2014-09-18T11:26:00.824Z,55.14
2014-09-18T11:27:05.528Z,56.04
2014-09-18T11:28:10.233Z,55.77
2014-09-18T11:29:14.922Z,55.85
2014-09-18T11:30:19.612Z,54.89
2014-09-18T11:31:24.301Z,53.92
2014-09-18T11:32:28.991Z,54.16
2014-09-18T11:33:33.977Z,54.4
2014-09-18T11:34:38.667Z,54.03
2014-09-18T11:35:43.356Z,54.42
2014-09-18T11:36:48.046Z,54.51
2014-09-18T11:37:52.735Z,54.13
2014-09-18T11:38:57.427Z,54.6
2014-09-18T11:40:02.412Z,53.22
2014-09-18T11:41:07.102Z,52.6
2014-09-18T11:42:12.088Z,52.13
2014-09-18T11:43:16.778Z,53.35
2014-09-18T11:44:21.467Z,52.91
2014-09-18T11:45:26.453Z,54.31
2014-09-18T11:46:31.127Z,53.46
2014-09-18T11:47:35.817Z,52.68
2014-09-18T11:48:40.506Z,52.16
2014-09-18T11:49:45.196Z,51.84
2014-09-18T11:50:49.885Z,51.33
2014-09-18T11:51:54.577Z,51.78
2014-09-18T11:52:59.266Z,52.1
2014-09-18T11:54:04.236Z,51.78
2014-09-18T11:55:08.941Z,51.83
2014-09-18T11:56:13.928Z,52.52
2014-09-18T11:57:18.617Z,52.76
2014-09-18T11:58:22.619Z,51.55
2014-09-18T11:59:27.309Z,52.42
2014-09-18T12:00:31.998Z,52.38
2014-09-18T12:01:36.688Z,52.82
2014-09-18T12:02:41.360Z,52.53
2014-09-18T12:03:46.051Z,52.55
2014-09-18T12:04:50.740Z,51.71
2014-09-18T12:05:55.430Z,51.42
2014-09-18T12:07:00.416Z,52.98
2014-09-18T12:08:05.106Z,52.06
2014-09-18T12:09:09.795Z,51.14
2014-09-18T12:10:14.782Z,50.84
2014-09-18T12:11:19.471Z,50.42
2014-09-18T12:12:24.177Z,50.16
2014-09-18T12:13:28.867Z,50.33
2014-09-18T12:14:33.555Z,52.33
2014-09-18T12:15:38.245Z,51.89
2014-09-18T12:16:42.934Z,51.58
2014-09-18T12:17:47.624Z,51.04
2014-09-18T12:18:52.313Z,51.42
2014-09-18T12:19:57.302Z,52.33
2014-09-18T12:21:01.991Z,52.6
2014-09-18T12:22:06.681Z,53.01
2014-09-18T12:23:11.370Z,52.4
2014-09-18T12:24:16.357Z,51.58
2014-09-18T12:25:21.045Z,51.36
2014-09-18T12:26:25.735Z,51.41
2014-09-18T12:27:30.408Z,52.19
2014-09-18T12:28:35.099Z,51.01
2014-09-18T12:29:39.803Z,52.11
2014-09-18T12:30:44.508Z,51.9
2014-09-18T12:31:49.198Z,51.88
2014-09-18T12:32:53.887Z,51.74
2014-09-18T12:33:58.579Z,52.43
2014-09-18T12:35:03.581Z,52.47
2014-09-18T12:36:08.269Z,52.8
2014-09-18T12:37:13.256Z,52.43
2014-09-18T12:38:18.242Z,52.02
2014-09-18T12:39:22.932Z,52.15
2014-09-18T12:40:27.638Z,52.51
2014-09-18T12:41:32.328Z,52.48
2014-09-18T12:43:09.470Z,52.98
2014-09-18T12:44:14.472Z,52.24
2014-09-18T12:45:19.442Z,51.72
2014-09-18T12:46:24.132Z,51.84
2014-09-18T12:47:28.821Z,52.01
2014-09-18T12:48:33.809Z,52.21
2014-09-18T12:49:38.498Z,52.25
2014-09-18T12:50:43.485Z,52.41
2014-09-18T12:51:48.174Z,53.08
2014-09-18T12:52:52.864Z,51.86
2014-09-18T12:53:57.553Z,51.05
2014-09-18T12:55:02.540Z,51.17
2014-09-18T12:56:07.511Z,51.55
2014-09-18T12:57:12.200Z,51.4
2014-09-18T12:58:17.217Z,52.11
2014-09-18T12:59:21.908Z,52.24
2014-09-18T13:00:26.597Z,51.3
2014-09-18T13:01:31.286Z,50.98
2014-09-18T13:02:35.975Z,50.24
2014-09-18T13:03:40.665Z,51.6
2014-09-18T13:04:45.354Z,52.37
2014-09-18T13:05:50.342Z,51.19
2014-09-18T13:06:55.031Z,50.32
2014-09-18T13:07:59.723Z,50.63
2014-09-18T13:09:04.412Z,51.15
2014-09-18T13:10:09.101Z,51.66
2014-09-18T13:11:13.790Z,52.08
2014-09-18T13:12:17.808Z,52.34
2014-09-18T13:13:22.497Z,51.65
2014-09-18T13:14:27.171Z,51.75
2014-09-18T13:15:31.861Z,52.06
2014-09-18T13:16:36.550Z,52.93
2014-09-18T13:17:41.240Z,52.69
2014-09-18T13:18:46.225Z,51.71
2014-09-18T13:19:50.916Z,51.6
2014-09-18T13:20:55.902Z,52.16
2014-09-18T13:22:00.592Z,51.53
2014-09-18T13:23:05.281Z,51.14
2014-09-18T13:24:10.267Z,51.57
2014-09-18T13:25:14.941Z,51.64
2014-09-18T13:26:19.646Z,51.1
2014-09-18T13:27:24.337Z,51.51
2014-09-18T13:28:29.025Z,51.24
2014-09-18T13:29:34.013Z,50.69
2014-09-18T13:30:38.999Z,51.72
2014-09-18T13:31:43.688Z,52.12
2014-09-18T13:32:48.394Z,53.08
2014-09-18T13:33:53.379Z,52.18
2014-09-18T13:34:58.069Z,51.89
2014-09-18T13:36:02.759Z,50.62
2014-09-18T13:37:07.465Z,50.01
2014-09-18T13:38:12.155Z,49.92
2014-09-18T13:39:16.843Z,49.87
2014-09-18T13:40:21.534Z,49.66
2014-09-18T13:41:26.222Z,51.35
2014-09-18T13:42:30.912Z,50.3
2014-09-18T13:43:35.899Z,50.2
2014-09-18T13:44:40.589Z,50.59
2014-09-18T13:45:45.277Z,50.44
2014-09-18T13:46:49.967Z,50.97
2014-09-18T13:47:54.656Z,51.25
2014-09-18T13:48:59.348Z,50.67
2014-09-18T13:50:04.631Z,51.31
2014-09-18T13:51:09.320Z,51.2
2014-09-18T13:52:14.009Z,50.85
2014-09-18T13:53:18.698Z,51.51
2014-09-18T13:54:23.404Z,51.85
2014-09-18T13:55:28.093Z,51.7
2014-09-18T13:56:32.784Z,51.62
2014-09-18T13:57:37.770Z,52.16